sensor_id;sensor_type;location;lat;lon;timestamp;temperature;humidity
46416;DHT22;32620;51.704;7.822;2023-03-01T00:00:38;-1.10;99.90
46416;DHT22;32620;51.704;7.822;2023-03-01T00:03:04;-1.10;99.90
46416;DHT22;32620;51.704;7.822;2023-03-01T00:05:29;-1.20;99.90
46416;DHT22;32620;51.704;7.822;2023-03-01T00:07:55;-1.10;99.90
46416;DHT22;32620;51.704;7.822;2023-03-01T00:10:21;-1.10;99.90
46416;DHT22;32620;51.704;7.822;2023-03-01T00:12:46;-0.80;99.90
46416;DHT22;32620;51.704;7.822;2023-03-01T00:15:12;-0.90;99.90
46416;DHT22;32620;51.704;7.822;2023-03-01T00:17:37;-0.80;99.90
46416;DHT22;32620;51.704;7.822;2023-03-01T00:20:03;-0.80;99.90
46416;DHT22;32620;51.704;7.822;2023-03-01T00:22:33;-0.90;99.90
46416;DHT22;32620;51.704;7.822;2023-03-01T00:24:58;-1.00;99.90
46416;DHT22;32620;51.704;7.822;2023-03-01T00:27:24;-0.80;99.90
46416;DHT22;32620;51.704;7.822;2023-03-01T00:29:49;-0.70;99.90
46416;DHT22;32620;51.704;7.822;2023-03-01T00:32:15;-0.60;99.90
46416;DHT22;32620;51.704;7.822;2023-03-01T00:34:40;-0.70;99.90
46416;DHT22;32620;51.704;7.822;2023-03-01T00:37:06;-0.60;99.90
46416;DHT22;32620;51.704;7.822;2023-03-01T00:39:32;-0.70;99.90
46416;DHT22;32620;51.704;7.822;2023-03-01T00:41:58;-0.80;99.90
46416;DHT22;32620;51.704;7.822;2023-03-01T00:44:24;-0.80;99.90
46416;DHT22;32620;51.704;7.822;2023-03-01T00:46:49;-0.70;99.90
46416;DHT22;32620;51.704;7.822;2023-03-01T00:49:15;-0.70;99.90
46416;DHT22;32620;51.704;7.822;2023-03-01T00:51:40;-0.70;99.90
46416;DHT22;32620;51.704;7.822;2023-03-01T00:54:08;-0.70;99.90
46416;DHT22;32620;51.704;7.822;2023-03-01T00:56:34;-0.70;99.90
46416;DHT22;32620;51.704;7.822;2023-03-01T00:59:00;-0.60;99.90
46416;DHT22;32620;51.704;7.822;2023-03-01T01:01:28;-0.60;99.90
46416;DHT22;32620;51.704;7.822;2023-03-01T01:03:59;-0.70;99.90
46416;DHT22;32620;51.704;7.822;2023-03-01T01:06:28;-0.70;99.90
46416;DHT22;32620;51.704;7.822;2023-03-01T01:08:54;-0.70;99.90
46416;DHT22;32620;51.704;7.822;2023-03-01T01:11:22;-0.70;99.90
46416;DHT22;32620;51.704;7.822;2023-03-01T01:13:49;-0.70;99.90
46416;DHT22;32620;51.704;7.822;2023-03-01T01:16:16;-0.70;99.90
46416;DHT22;32620;51.704;7.822;2023-03-01T01:18:42;-0.80;99.90
46416;DHT22;32620;51.704;7.822;2023-03-01T01:21:10;-0.80;99.90
46416;DHT22;32620;51.704;7.822;2023-03-01T01:23:37;-0.80;99.90
46416;DHT22;32620;51.704;7.822;2023-03-01T01:26:05;-1.00;99.90
46416;DHT22;32620;51.704;7.822;2023-03-01T01:28:31;-1.30;99.90
46416;DHT22;32620;51.704;7.822;2023-03-01T01:30:57;-1.20;99.90
46416;DHT22;32620;51.704;7.822;2023-03-01T01:33:22;-1.30;99.90
46416;DHT22;32620;51.704;7.822;2023-03-01T01:35:48;-1.60;99.90
46416;DHT22;32620;51.704;7.822;2023-03-01T01:38:13;-1.70;99.90
46416;DHT22;32620;51.704;7.822;2023-03-01T01:40:46;-1.80;99.90
46416;DHT22;32620;51.704;7.822;2023-03-01T01:43:20;-1.80;99.90
46416;DHT22;32620;51.704;7.822;2023-03-01T01:45:46;-1.80;99.90
46416;DHT22;32620;51.704;7.822;2023-03-01T01:48:16;-1.70;99.90
46416;DHT22;32620;51.704;7.822;2023-03-01T01:50:44;-1.80;99.90
46416;DHT22;32620;51.704;7.822;2023-03-01T01:53:15;-1.90;99.90
46416;DHT22;32620;51.704;7.822;2023-03-01T01:55:46;-1.90;99.90
46416;DHT22;32620;51.704;7.822;2023-03-01T01:58:15;-1.90;99.90
46416;DHT22;32620;51.704;7.822;2023-03-01T02:00:43;-1.80;99.90
46416;DHT22;32620;51.704;7.822;2023-03-01T02:03:11;-1.70;99.90
46416;DHT22;32620;51.704;7.822;2023-03-01T02:06:00;-1.80;99.90
46416;DHT22;32620;51.704;7.822;2023-03-01T02:08:30;-1.90;99.90
46416;DHT22;32620;51.704;7.822;2023-03-01T02:10:58;-1.90;99.90
46416;DHT22;32620;51.704;7.822;2023-03-01T02:13:25;-1.90;99.90
46416;DHT22;32620;51.704;7.822;2023-03-01T02:15:51;-1.80;99.90
46416;DHT22;32620;51.704;7.822;2023-03-01T02:18:18;-1.80;99.90
46416;DHT22;32620;51.704;7.822;2023-03-01T02:21:08;-1.70;99.90
46416;DHT22;32620;51.704;7.822;2023-03-01T02:23:36;-1.50;99.90
46416;DHT22;32620;51.704;7.822;2023-03-01T02:26:11;-1.50;99.90
46416;DHT22;32620;51.704;7.822;2023-03-01T02:28:41;-1.60;99.90
46416;DHT22;32620;51.704;7.822;2023-03-01T02:31:09;-1.90;99.90
46416;DHT22;32620;51.704;7.822;2023-03-01T02:33:56;-2.10;99.90
46416;DHT22;32620;51.704;7.822;2023-03-01T02:36:26;-2.30;99.90
46416;DHT22;32620;51.704;7.822;2023-03-01T02:38:57;-2.50;99.90
46416;DHT22;32620;51.704;7.822;2023-03-01T02:41:23;-2.60;99.90
46416;DHT22;32620;51.704;7.822;2023-03-01T02:43:50;-2.70;99.90
46416;DHT22;32620;51.704;7.822;2023-03-01T02:46:20;-2.80;99.90
46416;DHT22;32620;51.704;7.822;2023-03-01T02:48:48;-2.90;99.90
46416;DHT22;32620;51.704;7.822;2023-03-01T02:54:22;-3.10;99.90
46416;DHT22;32620;51.704;7.822;2023-03-01T02:56:48;-3.10;99.90
46416;DHT22;32620;51.704;7.822;2023-03-01T02:59:17;-3.20;99.90
46416;DHT22;32620;51.704;7.822;2023-03-01T03:01:43;-3.20;99.90
46416;DHT22;32620;51.704;7.822;2023-03-01T03:04:11;-3.20;99.90
46416;DHT22;32620;51.704;7.822;2023-03-01T03:06:37;-3.20;99.90
46416;DHT22;32620;51.704;7.822;2023-03-01T03:09:04;-3.20;99.90
46416;DHT22;32620;51.704;7.822;2023-03-01T03:11:30;-3.20;99.90
46416;DHT22;32620;51.704;7.822;2023-03-01T03:13:56;-3.30;99.90
46416;DHT22;32620;51.704;7.822;2023-03-01T03:16:22;-3.20;99.90
46416;DHT22;32620;51.704;7.822;2023-03-01T03:18:48;-3.30;99.90
46416;DHT22;32620;51.704;7.822;2023-03-01T03:21:15;-3.30;99.90
46416;DHT22;32620;51.704;7.822;2023-03-01T03:23:41;-3.30;99.90
46416;DHT22;32620;51.704;7.822;2023-03-01T03:26:07;-3.40;99.90
46416;DHT22;32620;51.704;7.822;2023-03-01T03:28:34;-3.40;99.90
46416;DHT22;32620;51.704;7.822;2023-03-01T03:31:00;-3.40;99.90
46416;DHT22;32620;51.704;7.822;2023-03-01T03:33:30;-3.50;99.90
46416;DHT22;32620;51.704;7.822;2023-03-01T03:35:55;-3.60;99.90
46416;DHT22;32620;51.704;7.822;2023-03-01T03:38:21;-3.60;99.90
46416;DHT22;32620;51.704;7.822;2023-03-01T03:40:52;-3.70;99.90
46416;DHT22;32620;51.704;7.822;2023-03-01T03:43:26;-3.70;99.90
46416;DHT22;32620;51.704;7.822;2023-03-01T03:45:52;-3.80;99.90
46416;DHT22;32620;51.704;7.822;2023-03-01T03:48:18;-3.80;99.90
46416;DHT22;32620;51.704;7.822;2023-03-01T03:50:50;-3.90;99.90
46416;DHT22;32620;51.704;7.822;2023-03-01T03:53:16;-3.90;99.90
46416;DHT22;32620;51.704;7.822;2023-03-01T03:55:42;-3.90;99.90
46416;DHT22;32620;51.704;7.822;2023-03-01T03:58:09;-4.00;99.90
46416;DHT22;32620;51.704;7.822;2023-03-01T04:00:38;-4.00;99.90
46416;DHT22;32620;51.704;7.822;2023-03-01T04:03:04;-4.00;99.90
46416;DHT22;32620;51.704;7.822;2023-03-01T04:05:30;-4.10;99.90
46416;DHT22;32620;51.704;7.822;2023-03-01T04:07:57;-4.00;99.90
46416;DHT22;32620;51.704;7.822;2023-03-01T04:10:39;-3.70;99.90
46416;DHT22;32620;51.704;7.822;2023-03-01T04:13:05;-3.20;99.90
46416;DHT22;32620;51.704;7.822;2023-03-01T04:15:32;-2.60;99.90
46416;DHT22;32620;51.704;7.822;2023-03-01T04:17:58;-2.30;99.90
46416;DHT22;32620;51.704;7.822;2023-03-01T04:20:26;-2.20;99.90
46416;DHT22;32620;51.704;7.822;2023-03-01T04:22:59;-2.10;99.90
46416;DHT22;32620;51.704;7.822;2023-03-01T04:25:25;-2.00;99.90
46416;DHT22;32620;51.704;7.822;2023-03-01T04:27:51;-2.00;99.90
46416;DHT22;32620;51.704;7.822;2023-03-01T04:30:16;-2.00;99.90
46416;DHT22;32620;51.704;7.822;2023-03-01T04:32:42;-1.90;99.90
46416;DHT22;32620;51.704;7.822;2023-03-01T04:35:08;-1.80;99.90
46416;DHT22;32620;51.704;7.822;2023-03-01T04:37:33;-1.80;99.90
46416;DHT22;32620;51.704;7.822;2023-03-01T04:40:00;-1.80;99.90
46416;DHT22;32620;51.704;7.822;2023-03-01T04:42:26;-2.10;99.90
46416;DHT22;32620;51.704;7.822;2023-03-01T04:44:52;-2.40;99.90
46416;DHT22;32620;51.704;7.822;2023-03-01T04:47:17;-2.70;99.90
46416;DHT22;32620;51.704;7.822;2023-03-01T04:49:43;-2.80;99.90
46416;DHT22;32620;51.704;7.822;2023-03-01T04:52:08;-2.90;99.90
46416;DHT22;32620;51.704;7.822;2023-03-01T04:54:35;-3.10;99.90
46416;DHT22;32620;51.704;7.822;2023-03-01T04:57:02;-3.20;99.90
46416;DHT22;32620;51.704;7.822;2023-03-01T04:59:28;-3.20;99.90
46416;DHT22;32620;51.704;7.822;2023-03-01T05:01:55;-3.30;99.90
46416;DHT22;32620;51.704;7.822;2023-03-01T05:04:23;-3.30;99.90
46416;DHT22;32620;51.704;7.822;2023-03-01T05:06:49;-3.40;99.90
46416;DHT22;32620;51.704;7.822;2023-03-01T05:09:15;-3.40;99.90
46416;DHT22;32620;51.704;7.822;2023-03-01T05:11:40;-3.40;99.90
46416;DHT22;32620;51.704;7.822;2023-03-01T05:14:07;-3.40;99.90
46416;DHT22;32620;51.704;7.822;2023-03-01T05:16:33;-3.40;99.90
46416;DHT22;32620;51.704;7.822;2023-03-01T05:18:59;-3.20;99.90
46416;DHT22;32620;51.704;7.822;2023-03-01T05:21:25;-3.30;99.90
46416;DHT22;32620;51.704;7.822;2023-03-01T05:23:51;-3.30;99.90
46416;DHT22;32620;51.704;7.822;2023-03-01T05:26:19;-3.40;99.90
46416;DHT22;32620;51.704;7.822;2023-03-01T05:28:47;-3.40;99.90
46416;DHT22;32620;51.704;7.822;2023-03-01T05:31:12;-3.30;99.90
46416;DHT22;32620;51.704;7.822;2023-03-01T05:33:40;-3.20;99.90
46416;DHT22;32620;51.704;7.822;2023-03-01T05:36:07;-3.20;99.90
46416;DHT22;32620;51.704;7.822;2023-03-01T05:38:34;-3.20;99.90
46416;DHT22;32620;51.704;7.822;2023-03-01T05:40:59;-3.40;99.90
46416;DHT22;32620;51.704;7.822;2023-03-01T05:43:25;-3.50;99.90
46416;DHT22;32620;51.704;7.822;2023-03-01T05:45:51;-3.70;99.90
46416;DHT22;32620;51.704;7.822;2023-03-01T05:48:16;-3.80;99.90
46416;DHT22;32620;51.704;7.822;2023-03-01T05:50:44;-3.80;99.90
46416;DHT22;32620;51.704;7.822;2023-03-01T05:53:15;-3.90;99.90
46416;DHT22;32620;51.704;7.822;2023-03-01T05:55:41;-4.00;99.90
46416;DHT22;32620;51.704;7.822;2023-03-01T05:58:11;-4.00;99.90
46416;DHT22;32620;51.704;7.822;2023-03-01T06:00:37;-4.10;99.90
46416;DHT22;32620;51.704;7.822;2023-03-01T06:03:03;-4.20;99.90
46416;DHT22;32620;51.704;7.822;2023-03-01T06:05:29;-4.20;99.90
46416;DHT22;32620;51.704;7.822;2023-03-01T06:07:58;-4.20;99.90
46416;DHT22;32620;51.704;7.822;2023-03-01T06:10:24;-4.30;99.90
46416;DHT22;32620;51.704;7.822;2023-03-01T06:12:50;-4.30;99.90
46416;DHT22;32620;51.704;7.822;2023-03-01T06:15:16;-4.30;99.90
46416;DHT22;32620;51.704;7.822;2023-03-01T06:17:44;-4.20;99.90
46416;DHT22;32620;51.704;7.822;2023-03-01T06:20:14;-4.20;99.90
46416;DHT22;32620;51.704;7.822;2023-03-01T06:22:40;-4.20;99.90
46416;DHT22;32620;51.704;7.822;2023-03-01T06:25:06;-4.10;99.90
46416;DHT22;32620;51.704;7.822;2023-03-01T06:27:32;-4.10;99.90
46416;DHT22;32620;51.704;7.822;2023-03-01T06:29:58;-4.00;99.90
46416;DHT22;32620;51.704;7.822;2023-03-01T06:32:23;-3.90;99.90
46416;DHT22;32620;51.704;7.822;2023-03-01T06:34:49;-3.80;99.90
46416;DHT22;32620;51.704;7.822;2023-03-01T06:37:15;-3.60;99.90
46416;DHT22;32620;51.704;7.822;2023-03-01T06:39:41;-3.30;99.90
46416;DHT22;32620;51.704;7.822;2023-03-01T06:42:07;-2.90;99.90
46416;DHT22;32620;51.704;7.822;2023-03-01T06:44:33;-2.50;99.90
46416;DHT22;32620;51.704;7.822;2023-03-01T06:46:59;-2.20;99.90
46416;DHT22;32620;51.704;7.822;2023-03-01T06:49:24;-1.80;99.90
46416;DHT22;32620;51.704;7.822;2023-03-01T06:51:50;-1.30;99.90
46416;DHT22;32620;51.704;7.822;2023-03-01T06:54:16;-0.80;99.90
46416;DHT22;32620;51.704;7.822;2023-03-01T06:56:43;-0.10;99.90
46416;DHT22;32620;51.704;7.822;2023-03-01T06:59:11;0.40;99.90
46416;DHT22;32620;51.704;7.822;2023-03-01T07:01:36;0.60;99.90
46416;DHT22;32620;51.704;7.822;2023-03-01T07:04:02;1.30;99.90
46416;DHT22;32620;51.704;7.822;2023-03-01T07:06:28;1.90;99.90
46416;DHT22;32620;51.704;7.822;2023-03-01T07:08:53;2.40;99.90
46416;DHT22;32620;51.704;7.822;2023-03-01T07:11:19;3.60;99.90
46416;DHT22;32620;51.704;7.822;2023-03-01T07:13:44;4.80;99.90
46416;DHT22;32620;51.704;7.822;2023-03-01T07:16:10;5.70;99.90
46416;DHT22;32620;51.704;7.822;2023-03-01T07:18:35;6.60;99.90
46416;DHT22;32620;51.704;7.822;2023-03-01T07:21:06;7.10;99.90
46416;DHT22;32620;51.704;7.822;2023-03-01T07:23:31;7.20;99.90
46416;DHT22;32620;51.704;7.822;2023-03-01T07:25:57;7.20;99.90
46416;DHT22;32620;51.704;7.822;2023-03-01T07:28:23;7.30;99.90
46416;DHT22;32620;51.704;7.822;2023-03-01T07:30:49;6.80;99.90
46416;DHT22;32620;51.704;7.822;2023-03-01T07:33:16;7.20;99.90
46416;DHT22;32620;51.704;7.822;2023-03-01T07:35:42;8.20;99.90
46416;DHT22;32620;51.704;7.822;2023-03-01T07:38:08;8.30;99.90
46416;DHT22;32620;51.704;7.822;2023-03-01T07:40:33;7.70;99.90
46416;DHT22;32620;51.704;7.822;2023-03-01T07:42:59;8.40;99.90
46416;DHT22;32620;51.704;7.822;2023-03-01T07:45:27;8.40;99.90
46416;DHT22;32620;51.704;7.822;2023-03-01T07:47:52;8.90;99.90
46416;DHT22;32620;51.704;7.822;2023-03-01T07:50:18;8.20;99.90
46416;DHT22;32620;51.704;7.822;2023-03-01T07:52:46;7.80;99.90
46416;DHT22;32620;51.704;7.822;2023-03-01T07:55:12;7.60;99.90
46416;DHT22;32620;51.704;7.822;2023-03-01T07:57:38;7.60;99.90
46416;DHT22;32620;51.704;7.822;2023-03-01T08:00:04;7.80;99.90
46416;DHT22;32620;51.704;7.822;2023-03-01T08:02:30;7.70;99.90
46416;DHT22;32620;51.704;7.822;2023-03-01T08:04:56;7.70;99.90
46416;DHT22;32620;51.704;7.822;2023-03-01T08:07:21;8.10;99.90
46416;DHT22;32620;51.704;7.822;2023-03-01T08:09:47;8.50;99.90
46416;DHT22;32620;51.704;7.822;2023-03-01T08:12:12;8.30;99.90
46416;DHT22;32620;51.704;7.822;2023-03-01T08:14:38;8.50;99.90
46416;DHT22;32620;51.704;7.822;2023-03-01T08:17:04;8.90;99.70
46416;DHT22;32620;51.704;7.822;2023-03-01T08:19:29;10.00;98.30
46416;DHT22;32620;51.704;7.822;2023-03-01T08:21:55;9.30;97.40
46416;DHT22;32620;51.704;7.822;2023-03-01T08:24:23;9.50;97.40
46416;DHT22;32620;51.704;7.822;2023-03-01T08:26:49;9.50;97.30
46416;DHT22;32620;51.704;7.822;2023-03-01T08:29:14;9.60;97.00
46416;DHT22;32620;51.704;7.822;2023-03-01T08:31:40;9.50;96.90
46416;DHT22;32620;51.704;7.822;2023-03-01T08:34:08;10.00;97.40
46416;DHT22;32620;51.704;7.822;2023-03-01T08:36:37;10.20;97.40
46416;DHT22;32620;51.704;7.822;2023-03-01T08:39:03;10.10;96.10
46416;DHT22;32620;51.704;7.822;2023-03-01T08:41:29;10.30;95.70
46416;DHT22;32620;51.704;7.822;2023-03-01T08:43:56;8.70;97.80
46416;DHT22;32620;51.704;7.822;2023-03-01T08:46:25;8.50;98.50
46416;DHT22;32620;51.704;7.822;2023-03-01T08:48:50;8.00;99.90
46416;DHT22;32620;51.704;7.822;2023-03-01T08:51:18;8.60;99.40
46416;DHT22;32620;51.704;7.822;2023-03-01T08:53:44;8.80;98.60
46416;DHT22;32620;51.704;7.822;2023-03-01T08:56:10;7.70;99.90
46416;DHT22;32620;51.704;7.822;2023-03-01T08:58:37;8.00;99.90
46416;DHT22;32620;51.704;7.822;2023-03-01T09:01:11;8.80;99.20
46416;DHT22;32620;51.704;7.822;2023-03-01T09:03:37;9.00;98.70
46416;DHT22;32620;51.704;7.822;2023-03-01T09:06:04;8.40;99.50
46416;DHT22;32620;51.704;7.822;2023-03-01T09:08:30;8.20;98.50
46416;DHT22;32620;51.704;7.822;2023-03-01T09:10:56;8.40;99.10
46416;DHT22;32620;51.704;7.822;2023-03-01T09:13:22;8.40;98.60
46416;DHT22;32620;51.704;7.822;2023-03-01T09:15:50;8.70;99.80
46416;DHT22;32620;51.704;7.822;2023-03-01T09:18:15;8.70;99.00
46416;DHT22;32620;51.704;7.822;2023-03-01T09:20:41;8.60;98.80
46416;DHT22;32620;51.704;7.822;2023-03-01T09:23:07;9.10;98.70
46416;DHT22;32620;51.704;7.822;2023-03-01T09:25:34;9.30;97.40
46416;DHT22;32620;51.704;7.822;2023-03-01T09:28:00;7.80;99.70
46416;DHT22;32620;51.704;7.822;2023-03-01T09:30:26;8.20;99.10
46416;DHT22;32620;51.704;7.822;2023-03-01T09:32:51;8.10;99.90
46416;DHT22;32620;51.704;7.822;2023-03-01T09:35:17;7.90;99.70
46416;DHT22;32620;51.704;7.822;2023-03-01T09:37:45;9.60;99.00
46416;DHT22;32620;51.704;7.822;2023-03-01T09:40:23;10.20;96.00
46416;DHT22;32620;51.704;7.822;2023-03-01T09:43:05;9.70;93.60
46416;DHT22;32620;51.704;7.822;2023-03-01T09:45:35;9.10;95.10
46416;DHT22;32620;51.704;7.822;2023-03-01T09:48:02;8.50;94.90
46416;DHT22;32620;51.704;7.822;2023-03-01T09:50:33;8.80;95.10
46416;DHT22;32620;51.704;7.822;2023-03-01T09:53:03;8.90;95.60
46416;DHT22;32620;51.704;7.822;2023-03-01T09:55:45;8.80;93.50
46416;DHT22;32620;51.704;7.822;2023-03-01T10:04:35;8.20;93.90
46416;DHT22;32620;51.704;7.822;2023-03-01T10:07:27;8.20;95.90
46416;DHT22;32620;51.704;7.822;2023-03-01T10:09:54;9.20;94.40
46416;DHT22;32620;51.704;7.822;2023-03-01T10:12:24;10.00;93.40
46416;DHT22;32620;51.704;7.822;2023-03-01T10:15:05;10.10;92.40
46416;DHT22;32620;51.704;7.822;2023-03-01T10:17:46;9.40;91.70
46416;DHT22;32620;51.704;7.822;2023-03-01T10:20:19;8.50;93.60
46416;DHT22;32620;51.704;7.822;2023-03-01T10:22:45;8.80;93.50
46416;DHT22;32620;51.704;7.822;2023-03-01T10:25:18;8.00;94.30
46416;DHT22;32620;51.704;7.822;2023-03-01T10:27:52;8.10;94.90
46416;DHT22;32620;51.704;7.822;2023-03-01T10:30:29;8.30;94.40
46416;DHT22;32620;51.704;7.822;2023-03-01T10:32:57;8.40;94.90
46416;DHT22;32620;51.704;7.822;2023-03-01T10:35:27;8.40;94.80
46416;DHT22;32620;51.704;7.822;2023-03-01T10:38:11;8.50;95.70
46416;DHT22;32620;51.704;7.822;2023-03-01T10:40:56;8.90;94.50
46416;DHT22;32620;51.704;7.822;2023-03-01T10:43:24;8.60;94.20
46416;DHT22;32620;51.704;7.822;2023-03-01T10:45:51;8.30;94.50
46416;DHT22;32620;51.704;7.822;2023-03-01T10:56:12;8.70;95.60
46416;DHT22;32620;51.704;7.822;2023-03-01T10:58:56;8.70;94.90
46416;DHT22;32620;51.704;7.822;2023-03-01T11:06:58;8.10;96.70
46416;DHT22;32620;51.704;7.822;2023-03-01T11:09:24;9.30;95.80
46416;DHT22;32620;51.704;7.822;2023-03-01T11:11:54;9.50;94.80
46416;DHT22;32620;51.704;7.822;2023-03-01T11:14:22;9.20;94.20
46416;DHT22;32620;51.704;7.822;2023-03-01T11:16:59;8.60;94.30
46416;DHT22;32620;51.704;7.822;2023-03-01T11:19:25;8.60;95.60
46416;DHT22;32620;51.704;7.822;2023-03-01T11:21:59;8.90;95.20
46416;DHT22;32620;51.704;7.822;2023-03-01T11:24:31;9.10;94.90
46416;DHT22;32620;51.704;7.822;2023-03-01T11:27:00;9.40;92.30
46416;DHT22;32620;51.704;7.822;2023-03-01T11:29:35;8.80;93.30
46416;DHT22;32620;51.704;7.822;2023-03-01T11:32:06;8.50;93.60
46416;DHT22;32620;51.704;7.822;2023-03-01T11:34:55;8.90;94.90
46416;DHT22;32620;51.704;7.822;2023-03-01T11:37:44;8.80;94.50
46416;DHT22;32620;51.704;7.822;2023-03-01T11:40:32;8.40;95.00
46416;DHT22;32620;51.704;7.822;2023-03-01T11:43:09;8.30;96.00
46416;DHT22;32620;51.704;7.822;2023-03-01T11:46:05;7.50;96.30
46416;DHT22;32620;51.704;7.822;2023-03-01T11:51:11;7.00;97.30
46416;DHT22;32620;51.704;7.822;2023-03-01T11:53:57;7.40;97.80
46416;DHT22;32620;51.704;7.822;2023-03-01T12:02:33;7.60;97.70
46416;DHT22;32620;51.704;7.822;2023-03-01T12:08:24;7.10;99.80
46416;DHT22;32620;51.704;7.822;2023-03-01T12:11:16;7.20;97.80
46416;DHT22;32620;51.704;7.822;2023-03-01T12:14:13;6.90;98.50
46416;DHT22;32620;51.704;7.822;2023-03-01T12:19:37;6.80;99.60
46416;DHT22;32620;51.704;7.822;2023-03-01T12:22:27;7.20;99.40
46416;DHT22;32620;51.704;7.822;2023-03-01T12:25:25;7.10;98.50
46416;DHT22;32620;51.704;7.822;2023-03-01T12:34:28;7.00;98.70
46416;DHT22;32620;51.704;7.822;2023-03-01T12:40:09;7.10;97.80
46416;DHT22;32620;51.704;7.822;2023-03-01T12:43:08;7.00;97.80
46416;DHT22;32620;51.704;7.822;2023-03-01T12:46:02;6.90;99.10
46416;DHT22;32620;51.704;7.822;2023-03-01T12:48:56;7.20;99.90
46416;DHT22;32620;51.704;7.822;2023-03-01T12:51:26;7.30;98.00
46416;DHT22;32620;51.704;7.822;2023-03-01T12:53:55;7.40;98.30
46416;DHT22;32620;51.704;7.822;2023-03-01T12:56:24;7.20;98.00
46416;DHT22;32620;51.704;7.822;2023-03-01T12:59:14;7.20;98.90
46416;DHT22;32620;51.704;7.822;2023-03-01T13:04:54;7.20;98.70
46416;DHT22;32620;51.704;7.822;2023-03-01T13:07:29;7.40;98.70
46416;DHT22;32620;51.704;7.822;2023-03-01T13:10:23;7.00;98.80
46416;DHT22;32620;51.704;7.822;2023-03-01T13:13:01;6.90;99.70
46416;DHT22;32620;51.704;7.822;2023-03-01T13:15:36;7.10;98.80
46416;DHT22;32620;51.704;7.822;2023-03-01T13:18:04;7.40;98.80
46416;DHT22;32620;51.704;7.822;2023-03-01T13:20:52;7.40;97.70
46416;DHT22;32620;51.704;7.822;2023-03-01T13:26:11;7.00;98.00
46416;DHT22;32620;51.704;7.822;2023-03-01T13:28:48;7.10;98.20
46416;DHT22;32620;51.704;7.822;2023-03-01T13:33:57;7.10;98.50
46416;DHT22;32620;51.704;7.822;2023-03-01T13:39:04;7.20;98.60
46416;DHT22;32620;51.704;7.822;2023-03-01T13:41:51;7.20;98.40
46416;DHT22;32620;51.704;7.822;2023-03-01T13:44:29;7.20;99.60
46416;DHT22;32620;51.704;7.822;2023-03-01T13:46:59;7.20;98.40
46416;DHT22;32620;51.704;7.822;2023-03-01T13:49:28;7.00;97.50
46416;DHT22;32620;51.704;7.822;2023-03-01T13:51:54;6.90;97.30
46416;DHT22;32620;51.704;7.822;2023-03-01T13:54:30;6.90;98.00
46416;DHT22;32620;51.704;7.822;2023-03-01T13:56:58;7.00;97.70
46416;DHT22;32620;51.704;7.822;2023-03-01T13:59:24;7.10;98.40
46416;DHT22;32620;51.704;7.822;2023-03-01T14:01:55;7.10;97.40
46416;DHT22;32620;51.704;7.822;2023-03-01T14:04:27;7.20;97.40
46416;DHT22;32620;51.704;7.822;2023-03-01T14:07:18;7.20;96.60
46416;DHT22;32620;51.704;7.822;2023-03-01T14:09:46;7.20;96.90
46416;DHT22;32620;51.704;7.822;2023-03-01T14:12:44;7.40;95.90
46416;DHT22;32620;51.704;7.822;2023-03-01T14:15:22;7.30;95.30
46416;DHT22;32620;51.704;7.822;2023-03-01T14:18:27;7.30;95.50
46416;DHT22;32620;51.704;7.822;2023-03-01T14:20:42;7.20;94.70
46416;DHT22;32620;51.704;7.822;2023-03-01T14:23:14;7.40;95.00
46416;DHT22;32620;51.704;7.822;2023-03-01T14:25:47;7.20;95.10
46416;DHT22;32620;51.704;7.822;2023-03-01T14:28:16;7.30;95.50
46416;DHT22;32620;51.704;7.822;2023-03-01T14:30:44;7.10;94.90
46416;DHT22;32620;51.704;7.822;2023-03-01T14:33:31;7.20;95.40
46416;DHT22;32620;51.704;7.822;2023-03-01T14:36:03;7.10;94.40
46416;DHT22;32620;51.704;7.822;2023-03-01T14:38:35;7.20;95.70
46416;DHT22;32620;51.704;7.822;2023-03-01T14:41:03;7.20;95.10
46416;DHT22;32620;51.704;7.822;2023-03-01T14:43:30;7.10;95.30
46416;DHT22;32620;51.704;7.822;2023-03-01T14:45:56;7.10;94.90
46416;DHT22;32620;51.704;7.822;2023-03-01T14:48:22;7.10;95.20
46416;DHT22;32620;51.704;7.822;2023-03-01T14:50:48;7.10;95.00
46416;DHT22;32620;51.704;7.822;2023-03-01T14:53:19;7.10;95.00
46416;DHT22;32620;51.704;7.822;2023-03-01T14:55:48;7.20;94.90
46416;DHT22;32620;51.704;7.822;2023-03-01T14:58:20;7.30;94.70
46416;DHT22;32620;51.704;7.822;2023-03-01T15:00:54;7.20;94.20
46416;DHT22;32620;51.704;7.822;2023-03-01T15:03:33;7.20;94.70
46416;DHT22;32620;51.704;7.822;2023-03-01T15:06:01;7.10;95.00
46416;DHT22;32620;51.704;7.822;2023-03-01T15:08:28;7.10;95.00
46416;DHT22;32620;51.704;7.822;2023-03-01T15:13:51;7.10;95.40
46416;DHT22;32620;51.704;7.822;2023-03-01T15:16:22;7.30;96.00
46416;DHT22;32620;51.704;7.822;2023-03-01T15:19:06;7.30;96.30
46416;DHT22;32620;51.704;7.822;2023-03-01T15:21:33;7.30;95.00
46416;DHT22;32620;51.704;7.822;2023-03-01T15:24:22;7.20;94.60
46416;DHT22;32620;51.704;7.822;2023-03-01T15:26:53;7.00;94.80
46416;DHT22;32620;51.704;7.822;2023-03-01T15:29:25;6.90;94.90
46416;DHT22;32620;51.704;7.822;2023-03-01T15:31:58;7.00;95.60
46416;DHT22;32620;51.704;7.822;2023-03-01T15:34:27;7.00;95.50
46416;DHT22;32620;51.704;7.822;2023-03-01T15:36:54;7.00;95.80
46416;DHT22;32620;51.704;7.822;2023-03-01T15:39:52;7.10;95.40
46416;DHT22;32620;51.704;7.822;2023-03-01T15:45:09;7.00;94.90
46416;DHT22;32620;51.704;7.822;2023-03-01T15:47:36;7.00;94.60
46416;DHT22;32620;51.704;7.822;2023-03-01T15:50:04;7.00;94.60
46416;DHT22;32620;51.704;7.822;2023-03-01T15:52:35;6.90;94.90
46416;DHT22;32620;51.704;7.822;2023-03-01T15:55:14;6.80;94.60
46416;DHT22;32620;51.704;7.822;2023-03-01T15:57:40;6.80;95.10
46416;DHT22;32620;51.704;7.822;2023-03-01T16:00:08;6.80;94.80
46416;DHT22;32620;51.704;7.822;2023-03-01T16:02:37;6.70;94.90
46416;DHT22;32620;51.704;7.822;2023-03-01T16:05:03;6.70;95.40
46416;DHT22;32620;51.704;7.822;2023-03-01T16:07:29;6.70;95.60
46416;DHT22;32620;51.704;7.822;2023-03-01T16:09:56;6.60;96.00
46416;DHT22;32620;51.704;7.822;2023-03-01T16:12:22;6.60;95.90
46416;DHT22;32620;51.704;7.822;2023-03-01T16:14:49;6.60;95.80
46416;DHT22;32620;51.704;7.822;2023-03-01T16:17:15;6.50;95.60
46416;DHT22;32620;51.704;7.822;2023-03-01T16:19:41;6.40;95.70
46416;DHT22;32620;51.704;7.822;2023-03-01T16:22:06;6.40;95.30
46416;DHT22;32620;51.704;7.822;2023-03-01T16:24:32;6.30;95.60
46416;DHT22;32620;51.704;7.822;2023-03-01T16:26:58;6.30;95.60
46416;DHT22;32620;51.704;7.822;2023-03-01T16:29:23;6.20;95.50
46416;DHT22;32620;51.704;7.822;2023-03-01T16:31:49;6.10;95.90
46416;DHT22;32620;51.704;7.822;2023-03-01T16:34:14;6.10;95.80
46416;DHT22;32620;51.704;7.822;2023-03-01T16:36:42;6.10;96.10
46416;DHT22;32620;51.704;7.822;2023-03-01T16:39:09;6.00;96.50
46416;DHT22;32620;51.704;7.822;2023-03-01T16:41:34;5.90;96.60
46416;DHT22;32620;51.704;7.822;2023-03-01T16:44:00;5.90;96.70
46416;DHT22;32620;51.704;7.822;2023-03-01T16:46:27;5.80;97.30
46416;DHT22;32620;51.704;7.822;2023-03-01T16:48:54;5.70;97.00
46416;DHT22;32620;51.704;7.822;2023-03-01T16:51:22;5.60;97.40
46416;DHT22;32620;51.704;7.822;2023-03-01T16:53:48;5.50;97.70
46416;DHT22;32620;51.704;7.822;2023-03-01T16:56:14;5.50;97.90
46416;DHT22;32620;51.704;7.822;2023-03-01T16:58:41;5.30;98.20